Warren, North Dakota
Current Conditions -  °F | °C
As of 7:53 AM on Thursday 30 Oct 2014 (Local Time) from KFAR Reporting Station
Light Rain Light Rain  
Wind Chill: 33°   Ceiling: 400
Heat Index: 40°   Visibility: 2mi
Dew Point: 38°   Wind: 10mph
Humidity: 93%   Direction: 10°N
Pressure: 30.1"   Gusts: NA
Location:  46.672°N, 97.1156°W
Report Text: KFAR 301253Z 01009KT 2SM -RA BR BKN004 BKN009 OVC016 04/03 A3010 RMK AO2 RAB11 SLP199 P0001 T00440033
Loading
Personal Weather Stations






























Interactive Weather Map
Tropical Storm Tracking
New forecast layout! Learn more

10-Day Weather Forecast

Advertisements
Track Severe Weather on mobile